Time;durP1;ratioP1;P1;durP2;ratioP2;P2;SDS_P1;SDS_P2;PMS_P1;PMS_P2;Temp;Humidity;BMP_temperature;BMP_pressure;BME280_temperature;BME280_humidity;BME280_pressure;Samples;Min_cycle;Max_cycle;Signal;HPM_P1;HPM_P2
2022/12/17 13:06:58;;;;;;;3.05;1.65;;;9.60;99.90;;;;;;4967930;28;20050;-73
2022/12/17 13:09:27;;;;;;;3.83;1.73;;;9.60;99.90;;;;;;4955966;28;20034;-74
2022/12/17 13:12:01;;;;;;;2.75;1.27;;;9.60;99.90;;;;;;4963696;28;20507;-73
2022/12/17 13:14:29;;;;;;;5.75;1.70;;;9.60;99.90;;;;;;4967898;28;20086;-73
2022/12/17 13:17:03;;;;;;;4.32;1.83;;;9.40;99.90;;;;;;4994374;28;20046;-73
2022/12/17 13:19:40;;;;;;;2.88;1.30;;;9.60;99.90;;;;;;5010262;28;20033;-73
2022/12/17 13:22:15;;;;;;;5.25;1.58;;;9.60;99.90;;;;;;4995552;28;20034;-74
2022/12/17 13:24:44;;;;;;;6.85;2.00;;;9.50;99.90;;;;;;4996571;28;20267;-72
2022/12/17 13:27:32;;;;;;;3.72;1.30;;;9.60;99.90;;;;;;4986893;28;20042;-73
2022/12/17 13:30:16;;;;;;;3.13;1.10;;;9.50;99.90;;;;;;4984805;28;20065;-74
2022/12/17 13:33:00;;;;;;;2.38;1.40;;;9.50;99.90;;;;;;5000368;28;20038;-73
2022/12/17 13:35:37;;;;;;;2.20;1.15;;;9.20;99.90;;;;;;5072819;28;20028;-74
2022/12/17 13:38:18;;;;;;;2.25;1.42;;;8.80;99.90;;;;;;5061914;28;20543;-73
2022/12/17 13:41:18;;;;;;;2.55;1.08;;;8.30;99.90;;;;;;5060571;28;20479;-73
2022/12/17 13:43:53;;;;;;;5.05;1.60;;;7.90;99.90;;;;;;5019850;28;20045;-73
2022/12/17 13:46:24;;;;;;;2.58;1.20;;;7.90;99.90;;;;;;5072861;28;20040;-73
2022/12/17 13:49:01;;;;;;;4.70;1.33;;;8.20;99.90;;;;;;5070076;28;20127;-74
2022/12/17 13:51:29;;;;;;;6.22;1.85;;;8.90;99.90;;;;;;5054458;28;20034;-73
2022/12/17 13:54:00;;;;;;;2.75;1.42;;;9.50;99.90;;;;;;5070810;28;20056;-73
2022/12/17 13:56:31;;;;;;;3.53;1.88;;;10.20;99.10;;;;;;5070872;28;20098;-73
2022/12/17 13:59:01;;;;;;;3.92;1.50;;;10.90;97.10;;;;;;5067776;28;20066;-73
2022/12/17 14:01:27;;;;;;;2.78;1.17;;;10.80;96.10;;;;;;5071087;28;20037;-72
2022/12/17 14:03:56;;;;;;;2.25;1.40;;;10.80;97.20;;;;;;5071238;28;20446;-74
2022/12/17 14:06:24;;;;;;;2.50;1.77;;;10.90;98.20;;;;;;5071407;28;20047;-73
2022/12/17 14:08:53;;;;;;;3.22;1.45;;;11.00;97.00;;;;;;5070174;28;20041;-73
2022/12/17 14:14:17;;;;;;;3.03;1.67;;;11.40;93.60;;;;;;5049563;28;20059;-73
2022/12/17 14:16:43;;;;;;;2.83;1.77;;;11.50;92.50;;;;;;5066794;28;20032;-73
2022/12/17 14:19:09;;;;;;;2.53;1.48;;;11.50;92.70;;;;;;5069045;28;20028;-72
2022/12/17 14:21:36;;;;;;;3.30;1.50;;;11.40;93.00;;;;;;5070485;28;20037;-72
2022/12/17 14:24:03;;;;;;;4.40;1.88;;;11.40;91.30;;;;;;5071893;28;20093;-73
2022/12/17 14:26:29;;;;;;;5.25;2.03;;;11.30;91.90;;;;;;5071738;28;20036;-74
2022/12/17 14:28:56;;;;;;;3.75;2.20;;;11.20;90.70;;;;;;5062458;28;20071;-73
2022/12/17 14:31:28;;;;;;;5.72;2.33;;;10.30;92.70;;;;;;5064002;28;20058;-74
2022/12/17 14:34:10;;;;;;;3.28;1.40;;;9.30;96.40;;;;;;5067883;28;20056;-73
2022/12/17 14:36:39;;;;;;;3.25;1.40;;;8.50;98.30;;;;;;5066217;28;20077;-73
2022/12/17 14:39:14;;;;;;;4.35;1.73;;;7.80;99.90;;;;;;5068230;28;20044;-76
2022/12/17 14:44:54;;;;;;;3.25;1.52;;;6.30;99.90;;;;;;5007806;28;20426;-73
2022/12/17 14:47:24;;;;;;;3.90;1.90;;;5.70;99.90;;;;;;5009053;28;20532;-73
2022/12/17 14:49:52;;;;;;;3.20;1.63;;;5.10;99.90;;;;;;5002684;28;20064;-75
2022/12/17 14:52:27;;;;;;;3.17;1.50;;;4.80;99.90;;;;;;5009662;28;20038;-74
2022/12/17 14:54:52;;;;;;;2.00;1.20;;;4.50;99.90;;;;;;5004789;28;20125;-73
2022/12/17 14:57:20;;;;;;;3.58;1.30;;;4.30;99.90;;;;;;5008861;28;20034;-70
2022/12/17 14:59:46;;;;;;;2.72;1.42;;;4.10;99.90;;;;;;5003486;28;20482;-72
2022/12/17 15:02:25;;;;;;;9.25;4.47;;;4.00;99.90;;;;;;5006091;28;20065;-74
2022/12/17 15:04:56;;;;;;;7.45;3.78;;;3.90;99.90;;;;;;5002154;28;20058;-73
2022/12/17 15:07:27;;;;;;;2.20;1.70;;;3.70;99.90;;;;;;5008185;28;20040;-77
2022/12/17 15:09:54;;;;;;;5.38;3.00;;;3.70;99.90;;;;;;5007410;28;20125;-77
2022/12/17 15:12:21;;;;;;;7.65;3.25;;;3.70;99.90;;;;;;4999073;28;20034;-73
2022/12/17 15:14:47;;;;;;;3.33;2.47;;;3.70;99.90;;;;;;5012079;28;20477;-74
2022/12/17 15:17:14;;;;;;;4.30;2.25;;;3.60;99.90;;;;;;5057637;28;20036;-74
2022/12/17 15:19:40;;;;;;;7.45;3.80;;;3.50;99.90;;;;;;5058684;28;20047;-73
2022/12/17 15:22:13;;;;;;;2.72;1.90;;;3.50;99.90;;;;;;5060126;28;20062;-74
2022/12/17 15:24:38;;;;;;;3.85;1.70;;;3.30;99.90;;;;;;5058283;28;20032;-74
2022/12/17 15:27:04;;;;;;;6.53;3.30;;;3.20;99.90;;;;;;5054197;28;20448;-74
2022/12/17 15:29:30;;;;;;;5.72;2.42;;;3.10;99.90;;;;;;5058690;28;20033;-72
2022/12/17 15:31:56;;;;;;;8.57;2.33;;;3.00;99.90;;;;;;5059699;28;20518;-71
2022/12/17 15:34:22;;;;;;;5.43;2.92;;;3.00;99.90;;;;;;5059116;28;20021;-72
2022/12/17 15:36:47;;;;;;;7.28;3.40;;;2.90;99.90;;;;;;5054282;28;20017;-73
2022/12/17 15:39:13;;;;;;;6.72;3.30;;;2.80;99.90;;;;;;5044696;28;20040;-76
2022/12/17 15:44:23;;;;;;;12.32;6.68;;;2.80;99.90;;;;;;5060494;28;20048;-75
2022/12/17 15:46:49;;;;;;;7.10;2.83;;;2.60;99.90;;;;;;5060467;28;20040;-72
2022/12/17 15:49:14;;;;;;;13.43;3.90;;;2.50;99.90;;;;;;5061247;28;20059;-73
2022/12/17 15:51:40;;;;;;;5.32;2.28;;;2.40;99.90;;;;;;5061258;28;20028;-72
2022/12/17 15:54:06;;;;;;;4.38;2.03;;;2.40;99.90;;;;;;5060995;28;20043;-73
2022/12/17 15:56:33;;;;;;;9.02;3.05;;;2.20;99.90;;;;;;5058912;28;20032;-74
2022/12/17 15:58:59;;;;;;;4.20;1.98;;;2.10;99.90;;;;;;5058566;28;20040;-73
2022/12/17 16:01:25;;;;;;;3.92;2.17;;;1.90;99.90;;;;;;5042390;28;20119;-73
2022/12/17 16:03:51;;;;;;;5.95;1.80;;;1.80;99.90;;;;;;5055216;28;20047;-72
2022/12/17 16:06:16;;;;;;;4.15;2.15;;;1.70;99.90;;;;;;5064135;28;20040;-72
2022/12/17 16:08:42;;;;;;;5.15;2.47;;;1.60;99.90;;;;;;5066652;28;20032;-71
2022/12/17 16:11:09;;;;;;;6.65;2.50;;;1.50;99.90;;;;;;5064872;28;20032;-72
2022/12/17 16:13:36;;;;;;;5.15;2.60;;;1.40;99.90;;;;;;5052853;28;20033;-73
2022/12/17 16:16:01;;;;;;;3.40;2.10;;;1.30;99.90;;;;;;5042070;28;20025;-72
2022/12/17 16:18:27;;;;;;;4.45;2.28;;;1.20;99.90;;;;;;5061861;28;20560;-72
2022/12/17 16:20:53;;;;;;;3.70;2.15;;;1.10;99.90;;;;;;5057653;28;20107;-74
2022/12/17 16:23:19;;;;;;;5.28;2.60;;;1.10;99.90;;;;;;5064897;28;20029;-72
2022/12/17 16:25:58;;;;;;;10.18;2.17;;;1.10;99.90;;;;;;5042922;28;20041;-73
2022/12/17 16:28:25;;;;;;;5.95;2.72;;;1.20;99.90;;;;;;5058206;28;20029;-72
2022/12/17 16:30:58;;;;;;;9.38;2.30;;;1.20;99.90;;;;;;5033692;28;20028;-73
2022/12/17 16:33:24;;;;;;;8.73;4.20;;;1.20;99.90;;;;;;5060660;28;20095;-73
2022/12/17 16:35:53;;;;;;;6.03;2.60;;;1.10;99.90;;;;;;5054751;28;20440;-76
2022/12/17 16:38:20;;;;;;;5.85;3.03;;;1.20;99.90;;;;;;5063156;28;20259;-74
2022/12/17 16:40:46;;;;;;;6.07;3.15;;;1.20;99.90;;;;;;5053494;28;20032;-75
2022/12/17 16:43:11;;;;;;;12.05;5.15;;;1.10;99.90;;;;;;5061956;28;20135;-77
2022/12/17 16:45:47;;;;;;;7.32;4.22;;;1.20;99.90;;;;;;5037023;28;20052;-73
2022/12/17 16:48:13;;;;;;;6.78;3.63;;;1.30;99.90;;;;;;5058931;28;20341;-74
2022/12/17 16:50:39;;;;;;;9.07;3.58;;;1.20;99.90;;;;;;5054069;28;20070;-72
2022/12/17 16:53:05;;;;;;;9.32;3.60;;;1.10;99.90;;;;;;5055691;28;20021;-73
2022/12/17 16:55:30;;;;;;;17.33;8.15;;;1.10;99.90;;;;;;5065148;28;20040;-74
2022/12/17 16:57:56;;;;;;;24.15;11.50;;;1.10;99.90;;;;;;5061663;28;20024;-75
2022/12/17 17:00:22;;;;;;;14.88;7.30;;;1.10;99.90;;;;;;5069169;28;20028;-75
2022/12/17 17:02:48;;;;;;;15.05;7.43;;;1.10;99.90;;;;;;5060658;28;20021;-75
2022/12/17 17:05:13;;;;;;;12.23;6.47;;;1.00;99.90;;;;;;5066445;28;20036;-75
2022/12/17 17:07:39;;;;;;;8.90;4.05;;;1.00;99.90;;;;;;5036357;28;20473;-75
2022/12/17 17:10:05;;;;;;;10.07;4.00;;;0.90;99.90;;;;;;5069252;28;20028;-75
2022/12/17 17:12:31;;;;;;;7.00;3.90;;;0.80;99.90;;;;;;5039136;28;20021;-75
2022/12/17 17:14:56;;;;;;;6.78;3.92;;;0.70;99.90;;;;;;5062336;28;20025;-75
2022/12/17 17:17:22;;;;;;;10.45;4.65;;;0.60;99.90;;;;;;5065732;28;20032;-74
2022/12/17 17:19:48;;;;;;;8.98;4.10;;;0.60;99.90;;;;;;5047440;28;20411;-75
2022/12/17 17:22:13;;;;;;;12.65;5.22;;;0.50;99.90;;;;;;5062384;28;20028;-75
2022/12/17 17:24:39;;;;;;;7.38;3.80;;;0.50;99.90;;;;;;5061290;28;20086;-72
2022/12/17 17:27:05;;;;;;;8.45;4.25;;;0.40;99.90;;;;;;5065549;28;20063;-70
2022/12/17 17:29:30;;;;;;;9.68;4.38;;;0.40;99.90;;;;;;5068529;28;20526;-72
2022/12/17 17:31:56;;;;;;;13.02;6.25;;;0.40;99.90;;;;;;5043790;28;20032;-74
2022/12/17 17:34:22;;;;;;;14.90;7.47;;;0.40;99.90;;;;;;5068792;28;20391;-73
2022/12/17 17:36:47;;;;;;;6.70;4.75;;;0.40;99.90;;;;;;5067082;28;20032;-75
2022/12/17 17:39:13;;;;;;;12.48;5.15;;;0.40;99.90;;;;;;5073549;28;20131;-79
2022/12/17 17:41:39;;;;;;;15.13;8.88;;;0.40;99.90;;;;;;5065140;28;20055;-80
2022/12/17 17:44:07;;;;;;;12.05;7.03;;;0.50;99.90;;;;;;5067631;28;20491;-79
2022/12/17 17:46:34;;;;;;;11.30;5.90;;;0.50;99.90;;;;;;5086005;28;20134;-76
2022/12/17 17:49:01;;;;;;;10.68;6.03;;;0.40;99.90;;;;;;5073858;28;20040;-78
2022/12/17 17:51:30;;;;;;;13.82;6.80;;;0.40;99.90;;;;;;5092037;28;20024;-77
2022/12/17 17:53:58;;;;;;;12.95;7.13;;;0.30;99.90;;;;;;5086245;28;20032;-75
2022/12/17 17:56:29;;;;;;;14.20;7.28;;;0.30;99.90;;;;;;5088614;28;20020;-77
2022/12/17 17:58:59;;;;;;;14.98;7.32;;;0.30;99.90;;;;;;5072342;28;20532;-78
2022/12/17 18:01:28;;;;;;;16.52;7.95;;;0.30;99.90;;;;;;5089835;28;20077;-78
2022/12/17 18:03:58;;;;;;;11.30;7.22;;;0.20;99.90;;;;;;5084610;28;20035;-77
2022/12/17 18:06:25;;;;;;;18.23;9.52;;;0.10;99.90;;;;;;5087055;28;20109;-79
2022/12/17 18:08:51;;;;;;;15.80;8.25;;;0.20;99.90;;;;;;5091342;28;20028;-77
2022/12/17 18:11:19;;;;;;;18.20;9.80;;;0.10;99.90;;;;;;5066864;28;20032;-79
2022/12/17 18:13:54;;;;;;;18.75;10.02;;;0.10;99.90;;;;;;5090583;28;20024;-69
2022/12/17 18:16:25;;;;;;;19.67;9.88;;;0.00;99.90;;;;;;5091171;28;20064;-76
2022/12/17 18:18:53;;;;;;;20.25;10.50;;;0.00;99.90;;;;;;5087369;28;20032;-73
2022/12/17 18:21:19;;;;;;;19.35;10.77;;;0.10;99.90;;;;;;5090056;28;20063;-73
2022/12/17 18:23:46;;;;;;;20.58;10.23;;;0.10;99.90;;;;;;5088751;28;20024;-72
2022/12/17 18:26:17;;;;;;;32.20;14.90;;;0.20;99.90;;;;;;5075603;28;20046;-70
2022/12/17 18:28:43;;;;;;;28.08;13.75;;;0.20;99.90;;;;;;5084446;28;20028;-70
2022/12/17 18:31:21;;;;;;;25.17;11.18;;;0.20;99.90;;;;;;5075156;28;20032;-74
2022/12/17 18:33:52;;;;;;;27.77;14.27;;;0.10;99.90;;;;;;5076278;28;20044;-69
2022/12/17 18:36:22;;;;;;;38.28;21.05;;;0.10;99.90;;;;;;5085280;28;20039;-74
2022/12/17 18:38:54;;;;;;;31.17;15.77;;;0.10;99.90;;;;;;5087835;28;20123;-75
2022/12/17 18:44:06;;;;;;;23.83;11.65;;;0.00;99.90;;;;;;5067298;28;20043;-77
2022/12/17 18:46:32;;;;;;;19.35;8.18;;;0.10;99.90;;;;;;5069070;28;20432;-71
2022/12/17 18:49:04;;;;;;;19.20;8.23;;;0.10;99.90;;;;;;5069013;28;20052;-77
2022/12/17 18:51:29;;;;;;;26.55;10.88;;;0.10;99.90;;;;;;5071186;28;20032;-76
2022/12/17 18:54:00;;;;;;;18.15;8.90;;;0.00;99.90;;;;;;5071736;28;20432;-77
2022/12/17 18:56:27;;;;;;;27.48;13.43;;;0.10;99.90;;;;;;5061549;28;20077;-77
2022/12/17 18:58:54;;;;;;;27.42;13.13;;;0.00;99.90;;;;;;5070139;28;20029;-77
2022/12/17 19:01:23;;;;;;;24.25;12.82;;;-0.10;99.90;;;;;;5073288;28;20021;-78
2022/12/17 19:03:49;;;;;;;21.40;12.32;;;-0.20;99.90;;;;;;5071905;28;20073;-78
2022/12/17 19:06:16;;;;;;;23.85;12.23;;;-0.30;99.90;;;;;;5073316;28;20499;-78
2022/12/17 19:08:42;;;;;;;22.05;12.27;;;-0.20;99.90;;;;;;5071591;28;20029;-78
2022/12/17 19:11:09;;;;;;;43.03;24.38;;;-0.30;99.90;;;;;;5056682;28;20039;-78
2022/12/17 19:13:35;;;;;;;22.80;12.75;;;-0.40;99.90;;;;;;5074908;28;20029;-79
2022/12/17 19:16:10;;;;;;;23.63;11.95;;;-0.40;99.90;;;;;;5068842;28;20025;-77
2022/12/17 19:18:37;;;;;;;23.30;11.77;;;-0.40;99.90;;;;;;5050324;28;20036;-79
2022/12/17 19:21:05;;;;;;;24.75;13.48;;;-0.50;99.90;;;;;;5075025;28;20037;-77
2022/12/17 19:23:31;;;;;;;24.17;11.85;;;-0.50;99.90;;;;;;5071998;28;20040;-76
2022/12/17 19:26:04;;;;;;;24.83;12.52;;;-0.60;99.90;;;;;;5054278;28;20076;-77
2022/12/17 19:28:31;;;;;;;22.38;11.52;;;-0.60;99.90;;;;;;5067647;28;20476;-77
2022/12/17 19:30:56;;;;;;;28.35;14.10;;;-0.60;99.90;;;;;;5071108;28;20036;-78
2022/12/17 19:33:22;;;;;;;23.20;11.80;;;-0.50;99.90;;;;;;5065040;28;20029;-79
2022/12/17 19:35:48;;;;;;;22.20;11.30;;;-0.50;99.90;;;;;;5062402;28;20380;-79
2022/12/17 19:38:14;;;;;;;24.50;12.57;;;-0.40;99.90;;;;;;5073572;28;20142;-77
2022/12/17 19:40:39;;;;;;;29.67;12.25;;;-0.30;99.90;;;;;;5070012;28;20028;-77
2022/12/17 19:43:05;;;;;;;30.75;12.63;;;-0.20;99.90;;;;;;5064294;28;20052;-78
2022/12/17 19:45:31;;;;;;;28.92;13.35;;;-0.10;99.90;;;;;;5071570;28;20142;-78
2022/12/17 19:47:57;;;;;;;27.05;11.95;;;0.00;99.90;;;;;;5071402;28;20038;-77
2022/12/17 19:50:22;;;;;;;29.92;13.10;;;0.10;99.90;;;;;;5060275;28;20472;-78
2022/12/17 19:52:48;;;;;;;27.65;14.18;;;0.20;99.90;;;;;;5069476;28;20025;-79
2022/12/17 19:55:14;;;;;;;32.10;13.95;;;0.40;99.90;;;;;;5072702;28;20028;-77
2022/12/17 19:57:40;;;;;;;35.20;15.48;;;0.50;99.90;;;;;;5070268;28;20024;-76
2022/12/17 20:00:06;;;;;;;39.72;17.52;;;0.50;99.90;;;;;;5072004;28;20437;-78
2022/12/17 20:02:32;;;;;;;39.00;18.10;;;0.50;99.90;;;;;;5072746;28;20128;-78
2022/12/17 20:04:57;;;;;;;37.33;16.58;;;0.50;99.90;;;;;;5070627;28;20035;-79
2022/12/17 20:07:23;;;;;;;37.13;15.05;;;0.60;99.90;;;;;;5071037;28;20036;-76
2022/12/17 20:09:49;;;;;;;34.03;17.10;;;0.70;99.90;;;;;;5066081;28;20109;-76
2022/12/17 20:12:14;;;;;;;46.22;23.48;;;0.70;99.90;;;;;;5073788;28;20432;-78
2022/12/17 20:14:40;;;;;;;39.80;19.27;;;0.80;99.90;;;;;;5062248;28;20174;-77
2022/12/17 20:17:06;;;;;;;40.05;19.25;;;0.70;99.90;;;;;;5072337;28;20032;-77
2022/12/17 20:19:33;;;;;;;35.40;14.98;;;0.80;99.90;;;;;;5071251;28;20508;-77
2022/12/17 20:22:01;;;;;;;31.20;15.13;;;0.80;99.90;;;;;;5071520;28;20052;-78
2022/12/17 20:24:27;;;;;;;27.25;13.95;;;0.90;99.90;;;;;;5071755;28;20439;-78
2022/12/17 20:26:54;;;;;;;34.42;14.98;;;1.00;99.90;;;;;;5051228;28;20033;-76
2022/12/17 20:29:21;;;;;;;31.77;13.77;;;1.10;99.90;;;;;;5072328;28;20044;-76
2022/12/17 20:31:47;;;;;;;32.65;14.20;;;1.10;99.90;;;;;;5063997;28;20028;-76
2022/12/17 20:34:14;;;;;;;30.05;13.88;;;1.20;99.90;;;;;;5066668;28;20032;-77
2022/12/17 20:36:40;;;;;;;32.47;13.95;;;1.20;99.90;;;;;;5042569;28;20033;-80
2022/12/17 20:39:07;;;;;;;26.85;12.50;;;1.10;99.90;;;;;;5064517;28;20119;-77
2022/12/17 20:41:35;;;;;;;31.70;15.93;;;1.20;99.90;;;;;;5070533;28;20037;-77
2022/12/17 20:44:06;;;;;;;27.30;13.75;;;1.20;99.90;;;;;;5067170;28;20045;-76
2022/12/17 20:46:35;;;;;;;31.60;15.88;;;1.10;99.90;;;;;;5072480;28;20047;-78
2022/12/17 20:49:01;;;;;;;28.13;13.35;;;1.10;99.90;;;;;;5071885;28;20024;-77
2022/12/17 20:51:28;;;;;;;26.20;12.45;;;1.20;99.90;;;;;;5073413;28;20031;-77
2022/12/17 20:53:56;;;;;;;28.98;13.07;;;1.20;99.90;;;;;;5060908;28;20122;-78
2022/12/17 20:56:25;;;;;;;22.02;11.15;;;1.20;99.90;;;;;;5066220;28;20052;-78
2022/12/17 20:58:53;;;;;;;26.77;11.73;;;1.20;99.90;;;;;;5069672;28;20025;-77
2022/12/17 21:01:20;;;;;;;27.65;11.60;;;1.20;99.90;;;;;;5071042;28;20084;-76
2022/12/17 21:03:48;;;;;;;24.40;11.27;;;1.20;99.90;;;;;;5068161;28;20032;-76
2022/12/17 21:06:13;;;;;;;26.95;12.48;;;1.30;99.90;;;;;;5070424;28;20047;-76
2022/12/17 21:08:40;;;;;;;29.50;12.48;;;1.20;99.90;;;;;;5068464;28;20437;-77
2022/12/17 21:11:07;;;;;;;26.05;11.68;;;1.00;99.90;;;;;;5069607;28;20393;-77
2022/12/17 21:13:33;;;;;;;27.77;12.90;;;0.90;99.90;;;;;;5058606;28;20372;-78
2022/12/17 21:16:02;;;;;;;23.70;10.95;;;0.80;99.90;;;;;;5067503;28;20033;-77
2022/12/17 21:18:29;;;;;;;27.70;12.20;;;0.80;99.90;;;;;;5066338;28;20380;-77
2022/12/17 21:21:03;;;;;;;22.92;10.57;;;0.80;99.90;;;;;;5069123;28;20028;-77
2022/12/17 21:23:30;;;;;;;25.73;11.35;;;0.70;99.90;;;;;;5063266;28;20396;-77
2022/12/17 21:26:02;;;;;;;20.05;9.82;;;0.50;99.90;;;;;;5068703;28;20395;-77
2022/12/17 21:28:28;;;;;;;26.42;11.30;;;0.40;99.90;;;;;;5067365;28;20020;-76
2022/12/17 21:30:54;;;;;;;22.77;10.75;;;0.30;99.90;;;;;;5068645;28;20029;-78
2022/12/17 21:33:20;;;;;;;23.38;10.65;;;0.30;99.90;;;;;;5069107;28;20035;-77
2022/12/17 21:35:46;;;;;;;28.13;11.20;;;0.30;99.90;;;;;;5036933;28;20495;-71
2022/12/17 21:38:12;;;;;;;23.70;10.48;;;0.30;99.90;;;;;;5063403;28;20029;-73
2022/12/17 21:40:37;;;;;;;21.83;10.02;;;0.30;99.90;;;;;;5066886;28;20040;-70
2022/12/17 21:43:03;;;;;;;20.65;10.60;;;0.40;99.90;;;;;;5069480;28;20601;-77
2022/12/17 21:45:36;;;;;;;19.25;9.55;;;0.40;99.90;;;;;;5062314;28;20028;-72
2022/12/17 21:48:04;;;;;;;24.00;10.80;;;0.40;99.90;;;;;;5064800;28;20040;-74
2022/12/17 21:50:30;;;;;;;21.10;10.55;;;0.50;99.90;;;;;;5068714;28;20027;-74
2022/12/17 21:52:55;;;;;;;26.67;12.23;;;0.50;99.90;;;;;;5066416;28;20025;-74
2022/12/17 21:55:21;;;;;;;22.08;11.18;;;0.40;99.90;;;;;;5068178;28;20017;-73
2022/12/17 21:57:47;;;;;;;21.55;9.82;;;0.30;99.90;;;;;;5067003;28;20029;-73
2022/12/17 22:00:22;;;;;;;22.13;11.15;;;0.10;99.90;;;;;;5063152;28;20115;-73
2022/12/17 22:02:48;;;;;;;24.25;11.98;;;0.00;99.90;;;;;;5066613;28;20036;-74
2022/12/17 22:05:14;;;;;;;25.73;11.77;;;-0.20;99.90;;;;;;5069530;28;20437;-76
2022/12/17 22:07:39;;;;;;;27.48;10.90;;;-0.30;99.90;;;;;;5065900;28;20036;-78
2022/12/17 22:10:05;;;;;;;23.73;11.18;;;-0.30;99.90;;;;;;5064459;28;20044;-73
2022/12/17 22:15:17;;;;;;;25.38;11.20;;;0.00;99.90;;;;;;5050201;28;20435;-76
2022/12/17 22:17:43;;;;;;;27.67;12.25;;;0.00;99.90;;;;;;5068282;28;20502;-76
2022/12/17 22:20:09;;;;;;;28.60;12.65;;;0.00;99.90;;;;;;5067659;28;20389;-77
2022/12/17 22:22:35;;;;;;;21.63;10.48;;;-0.20;99.90;;;;;;5069154;28;20029;-78
2022/12/17 22:25:01;;;;;;;27.67;12.23;;;-0.40;99.90;;;;;;5048924;28;20078;-79
2022/12/17 22:27:26;;;;;;;22.75;11.32;;;-0.30;99.90;;;;;;5071056;28;20093;-77
2022/12/17 22:35:21;;;;;;;26.75;12.02;;;-0.50;99.90;;;;;;5068147;28;20044;-75
2022/12/17 22:37:47;;;;;;;29.30;13.15;;;-0.60;99.90;;;;;;5066875;28;20021;-78
2022/12/17 22:40:13;;;;;;;24.55;11.60;;;-0.70;99.90;;;;;;5064664;28;20036;-76
2022/12/17 22:45:22;;;;;;;24.70;12.57;;;-0.70;99.90;;;;;;5068265;28;20098;-76
2022/12/17 22:47:48;;;;;;;27.80;12.95;;;-0.70;99.90;;;;;;5067498;28;20033;-75
2022/12/17 22:50:14;;;;;;;23.95;12.00;;;-0.70;99.90;;;;;;5079499;28;20021;-79
2022/12/17 22:52:39;;;;;;;28.35;12.10;;;-0.80;99.90;;;;;;5077392;28;20035;-77
2022/12/17 22:55:06;;;;;;;27.13;13.60;;;-1.00;99.90;;;;;;5067337;28;20033;-76
2022/12/17 22:57:31;;;;;;;29.08;12.52;;;-0.90;99.90;;;;;;5048683;28;20388;-74
2022/12/17 22:59:57;;;;;;;25.08;11.73;;;-0.90;99.90;;;;;;5066094;28;20037;-77
2022/12/17 23:02:23;;;;;;;29.33;12.60;;;-0.90;99.90;;;;;;5067593;28;20033;-74
2022/12/17 23:04:48;;;;;;;24.27;12.30;;;-1.00;99.90;;;;;;5068689;28;20476;-77
2022/12/17 23:07:14;;;;;;;26.80;12.35;;;-1.00;99.90;;;;;;5051028;28;20040;-76
2022/12/17 23:09:40;;;;;;;30.25;12.98;;;-1.00;99.90;;;;;;5064364;28;20158;-77
2022/12/17 23:14:50;;;;;;;30.35;13.35;;;-1.00;99.90;;;;;;5074371;28;20098;-78
2022/12/17 23:17:16;;;;;;;30.80;13.07;;;-1.00;99.90;;;;;;5074217;28;20033;-78
2022/12/17 23:19:41;;;;;;;30.38;13.02;;;-0.90;99.90;;;;;;5065729;28;20392;-77
2022/12/17 23:22:07;;;;;;;28.60;12.65;;;-1.00;99.90;;;;;;5072889;28;20024;-77
2022/12/17 23:24:33;;;;;;;31.75;13.68;;;-1.00;99.90;;;;;;5064304;28;20050;-76
2022/12/17 23:26:58;;;;;;;30.85;13.10;;;-1.10;99.90;;;;;;5063704;28;20037;-77
2022/12/17 23:29:24;;;;;;;33.35;14.25;;;-0.90;99.90;;;;;;5067316;28;20472;-77
2022/12/17 23:31:50;;;;;;;27.52;12.68;;;-0.90;99.90;;;;;;5069437;28;20024;-76
2022/12/17 23:34:15;;;;;;;31.95;13.75;;;-0.90;99.90;;;;;;5069223;28;20028;-78
2022/12/17 23:36:41;;;;;;;32.80;13.50;;;-0.50;99.90;;;;;;5058228;28;20035;-78
2022/12/17 23:39:07;;;;;;;31.13;13.80;;;-0.50;99.90;;;;;;5063669;28;20025;-77
2022/12/17 23:41:33;;;;;;;27.63;11.90;;;-0.50;99.90;;;;;;5061896;28;20066;-78
2022/12/17 23:44:00;;;;;;;31.50;14.30;;;-0.60;99.90;;;;;;5083817;28;20072;-77
2022/12/17 23:46:28;;;;;;;28.23;13.23;;;-0.50;99.90;;;;;;5085794;28;20037;-77
2022/12/17 23:48:54;;;;;;;31.75;13.35;;;-0.50;99.90;;;;;;5070712;28;20031;-76
2022/12/17 23:51:21;;;;;;;28.73;13.18;;;-0.20;99.90;;;;;;5087311;28;20475;-76
2022/12/17 23:53:48;;;;;;;30.73;13.85;;;-0.20;99.90;;;;;;5085040;28;20039;-76
2022/12/17 23:56:16;;;;;;;31.08;13.77;;;-0.30;99.90;;;;;;5080927;28;20019;-75
2022/12/17 23:58:43;;;;;;;34.30;14.15;;;-0.40;99.90;;;;;;5089505;28;20032;-78
